sensor_id;sensor_type;location;lat;lon;timestamp;temperature;humidity
17252;DHT22;8742;51.716;8.790;2024-02-14T00:00:19;6.90;99.90
17252;DHT22;8742;51.716;8.790;2024-02-14T00:02:47;7.00;99.90
17252;DHT22;8742;51.716;8.790;2024-02-14T00:05:16;7.00;99.90
17252;DHT22;8742;51.716;8.790;2024-02-14T00:07:44;7.10;99.90
17252;DHT22;8742;51.716;8.790;2024-02-14T00:10:11;7.10;99.90
17252;DHT22;8742;51.716;8.790;2024-02-14T00:12:38;7.10;99.90
17252;DHT22;8742;51.716;8.790;2024-02-14T00:15:05;7.20;99.90
17252;DHT22;8742;51.716;8.790;2024-02-14T00:17:33;7.20;99.90
17252;DHT22;8742;51.716;8.790;2024-02-14T00:20:00;7.20;99.90
17252;DHT22;8742;51.716;8.790;2024-02-14T00:22:28;7.20;99.90
17252;DHT22;8742;51.716;8.790;2024-02-14T00:24:55;7.20;99.90
17252;DHT22;8742;51.716;8.790;2024-02-14T00:27:22;7.30;99.90
17252;DHT22;8742;51.716;8.790;2024-02-14T00:29:50;7.30;99.90
17252;DHT22;8742;51.716;8.790;2024-02-14T00:32:17;7.30;99.90
17252;DHT22;8742;51.716;8.790;2024-02-14T00:34:43;7.30;99.90
17252;DHT22;8742;51.716;8.790;2024-02-14T00:37:11;7.40;99.90
17252;DHT22;8742;51.716;8.790;2024-02-14T00:39:39;7.40;99.90
17252;DHT22;8742;51.716;8.790;2024-02-14T00:42:06;7.50;99.90
17252;DHT22;8742;51.716;8.790;2024-02-14T00:44:33;7.50;99.90
17252;DHT22;8742;51.716;8.790;2024-02-14T00:46:59;7.50;99.90
17252;DHT22;8742;51.716;8.790;2024-02-14T00:49:27;7.50;99.90
17252;DHT22;8742;51.716;8.790;2024-02-14T00:51:54;7.50;99.90
17252;DHT22;8742;51.716;8.790;2024-02-14T00:54:21;7.50;99.90
17252;DHT22;8742;51.716;8.790;2024-02-14T00:56:49;7.50;99.90
17252;DHT22;8742;51.716;8.790;2024-02-14T00:59:16;7.50;99.90
17252;DHT22;8742;51.716;8.790;2024-02-14T01:01:43;7.50;99.90
17252;DHT22;8742;51.716;8.790;2024-02-14T01:04:11;7.50;99.90
17252;DHT22;8742;51.716;8.790;2024-02-14T01:06:38;7.50;99.90
17252;DHT22;8742;51.716;8.790;2024-02-14T01:09:04;7.50;99.90
17252;DHT22;8742;51.716;8.790;2024-02-14T01:11:31;7.60;99.90
17252;DHT22;8742;51.716;8.790;2024-02-14T01:14:00;7.50;99.90
17252;DHT22;8742;51.716;8.790;2024-02-14T01:16:27;7.50;99.90
17252;DHT22;8742;51.716;8.790;2024-02-14T01:18:54;7.50;99.90
17252;DHT22;8742;51.716;8.790;2024-02-14T01:21:21;7.50;99.90
17252;DHT22;8742;51.716;8.790;2024-02-14T01:23:47;7.60;99.90
17252;DHT22;8742;51.716;8.790;2024-02-14T01:26:14;7.50;99.90
17252;DHT22;8742;51.716;8.790;2024-02-14T01:28:41;7.50;99.90
17252;DHT22;8742;51.716;8.790;2024-02-14T01:31:11;7.60;99.90
17252;DHT22;8742;51.716;8.790;2024-02-14T01:33:38;7.60;99.90
17252;DHT22;8742;51.716;8.790;2024-02-14T01:36:06;7.60;99.90
17252;DHT22;8742;51.716;8.790;2024-02-14T01:38:33;7.60;99.90
17252;DHT22;8742;51.716;8.790;2024-02-14T01:41:01;7.60;99.90
17252;DHT22;8742;51.716;8.790;2024-02-14T01:43:29;7.60;99.90
17252;DHT22;8742;51.716;8.790;2024-02-14T01:45:58;7.60;99.90
17252;DHT22;8742;51.716;8.790;2024-02-14T01:48:31;7.60;99.90
17252;DHT22;8742;51.716;8.790;2024-02-14T01:50:59;7.60;99.90
17252;DHT22;8742;51.716;8.790;2024-02-14T01:53:27;7.70;99.90
17252;DHT22;8742;51.716;8.790;2024-02-14T01:55:56;7.70;99.90
17252;DHT22;8742;51.716;8.790;2024-02-14T01:58:23;7.80;99.90
17252;DHT22;8742;51.716;8.790;2024-02-14T02:00:51;7.80;99.90
17252;DHT22;8742;51.716;8.790;2024-02-14T02:03:21;7.80;99.90
17252;DHT22;8742;51.716;8.790;2024-02-14T02:05:50;7.90;99.90
17252;DHT22;8742;51.716;8.790;2024-02-14T02:08:17;7.90;99.90
17252;DHT22;8742;51.716;8.790;2024-02-14T02:10:44;7.90;99.90
17252;DHT22;8742;51.716;8.790;2024-02-14T02:13:11;7.80;99.90
17252;DHT22;8742;51.716;8.790;2024-02-14T02:15:37;7.90;99.90
17252;DHT22;8742;51.716;8.790;2024-02-14T02:18:05;7.90;99.90
17252;DHT22;8742;51.716;8.790;2024-02-14T02:20:33;7.90;99.90
17252;DHT22;8742;51.716;8.790;2024-02-14T02:23:01;8.00;99.90
17252;DHT22;8742;51.716;8.790;2024-02-14T02:25:28;7.90;99.90
17252;DHT22;8742;51.716;8.790;2024-02-14T02:27:55;8.00;99.90
17252;DHT22;8742;51.716;8.790;2024-02-14T02:30:23;8.00;99.90
17252;DHT22;8742;51.716;8.790;2024-02-14T02:32:50;8.00;99.90
17252;DHT22;8742;51.716;8.790;2024-02-14T02:35:17;8.10;99.90
17252;DHT22;8742;51.716;8.790;2024-02-14T02:37:45;8.10;99.90
17252;DHT22;8742;51.716;8.790;2024-02-14T02:40:15;8.10;99.90
17252;DHT22;8742;51.716;8.790;2024-02-14T02:42:42;8.20;99.90
17252;DHT22;8742;51.716;8.790;2024-02-14T02:45:10;8.20;99.90
17252;DHT22;8742;51.716;8.790;2024-02-14T02:47:37;8.30;99.90
17252;DHT22;8742;51.716;8.790;2024-02-14T02:50:05;8.30;99.90
17252;DHT22;8742;51.716;8.790;2024-02-14T02:52:33;8.30;99.90
17252;DHT22;8742;51.716;8.790;2024-02-14T02:55:00;8.40;99.90
17252;DHT22;8742;51.716;8.790;2024-02-14T02:57:29;8.50;99.90
17252;DHT22;8742;51.716;8.790;2024-02-14T02:59:57;8.60;99.90
17252;DHT22;8742;51.716;8.790;2024-02-14T03:02:25;8.60;99.90
17252;DHT22;8742;51.716;8.790;2024-02-14T03:04:52;8.70;99.90
17252;DHT22;8742;51.716;8.790;2024-02-14T03:07:20;8.70;99.90
17252;DHT22;8742;51.716;8.790;2024-02-14T03:09:48;8.80;99.90
17252;DHT22;8742;51.716;8.790;2024-02-14T03:12:15;8.80;99.90
17252;DHT22;8742;51.716;8.790;2024-02-14T03:14:45;8.80;99.90
17252;DHT22;8742;51.716;8.790;2024-02-14T03:17:12;8.90;99.90
17252;DHT22;8742;51.716;8.790;2024-02-14T03:19:40;9.00;99.90
17252;DHT22;8742;51.716;8.790;2024-02-14T03:22:07;9.00;99.90
17252;DHT22;8742;51.716;8.790;2024-02-14T03:24:34;9.00;99.90
17252;DHT22;8742;51.716;8.790;2024-02-14T03:27:03;9.00;99.90
17252;DHT22;8742;51.716;8.790;2024-02-14T03:29:31;9.00;99.90
17252;DHT22;8742;51.716;8.790;2024-02-14T03:31:59;9.10;99.90
17252;DHT22;8742;51.716;8.790;2024-02-14T03:34:30;9.10;99.90
17252;DHT22;8742;51.716;8.790;2024-02-14T03:36:59;9.20;99.90
17252;DHT22;8742;51.716;8.790;2024-02-14T03:39:26;9.20;99.90
17252;DHT22;8742;51.716;8.790;2024-02-14T03:41:53;9.20;99.90
17252;DHT22;8742;51.716;8.790;2024-02-14T03:44:21;9.20;99.90
17252;DHT22;8742;51.716;8.790;2024-02-14T03:46:48;9.30;99.90
17252;DHT22;8742;51.716;8.790;2024-02-14T03:49:16;9.30;99.90
17252;DHT22;8742;51.716;8.790;2024-02-14T03:51:43;9.30;99.90
17252;DHT22;8742;51.716;8.790;2024-02-14T03:54:10;9.20;99.90
17252;DHT22;8742;51.716;8.790;2024-02-14T03:56:37;9.20;99.90
17252;DHT22;8742;51.716;8.790;2024-02-14T03:59:04;9.20;99.90
17252;DHT22;8742;51.716;8.790;2024-02-14T04:01:33;9.20;99.90
17252;DHT22;8742;51.716;8.790;2024-02-14T04:04:00;9.20;99.90
17252;DHT22;8742;51.716;8.790;2024-02-14T04:06:29;9.30;99.90
17252;DHT22;8742;51.716;8.790;2024-02-14T04:08:57;9.30;99.90
17252;DHT22;8742;51.716;8.790;2024-02-14T04:11:24;9.30;99.90
17252;DHT22;8742;51.716;8.790;2024-02-14T04:13:51;9.30;99.90
17252;DHT22;8742;51.716;8.790;2024-02-14T04:16:19;9.30;99.90
17252;DHT22;8742;51.716;8.790;2024-02-14T04:18:47;9.30;99.90
17252;DHT22;8742;51.716;8.790;2024-02-14T04:21:13;9.30;99.90
17252;DHT22;8742;51.716;8.790;2024-02-14T04:23:42;9.30;99.90
17252;DHT22;8742;51.716;8.790;2024-02-14T04:26:09;9.30;99.90
17252;DHT22;8742;51.716;8.790;2024-02-14T04:28:35;9.40;99.90
17252;DHT22;8742;51.716;8.790;2024-02-14T04:31:06;9.40;99.90
17252;DHT22;8742;51.716;8.790;2024-02-14T04:33:32;9.40;99.90
17252;DHT22;8742;51.716;8.790;2024-02-14T04:35:59;9.40;99.90
17252;DHT22;8742;51.716;8.790;2024-02-14T04:38:26;9.50;99.90
17252;DHT22;8742;51.716;8.790;2024-02-14T04:40:55;9.50;99.90
17252;DHT22;8742;51.716;8.790;2024-02-14T04:43:24;9.50;99.90
17252;DHT22;8742;51.716;8.790;2024-02-14T04:45:52;9.50;99.90
17252;DHT22;8742;51.716;8.790;2024-02-14T04:48:19;9.50;99.90
17252;DHT22;8742;51.716;8.790;2024-02-14T04:50:46;9.40;99.90
17252;DHT22;8742;51.716;8.790;2024-02-14T04:53:14;9.40;99.90
17252;DHT22;8742;51.716;8.790;2024-02-14T04:55:42;9.50;99.90
17252;DHT22;8742;51.716;8.790;2024-02-14T04:58:11;9.50;99.90
17252;DHT22;8742;51.716;8.790;2024-02-14T05:00:37;9.40;99.90
17252;DHT22;8742;51.716;8.790;2024-02-14T05:03:05;9.40;99.90
17252;DHT22;8742;51.716;8.790;2024-02-14T05:05:32;9.40;99.90
17252;DHT22;8742;51.716;8.790;2024-02-14T05:07:59;9.50;99.90
17252;DHT22;8742;51.716;8.790;2024-02-14T05:10:27;9.50;99.90
17252;DHT22;8742;51.716;8.790;2024-02-14T05:12:54;9.50;99.90
17252;DHT22;8742;51.716;8.790;2024-02-14T05:15:22;9.50;99.90
17252;DHT22;8742;51.716;8.790;2024-02-14T05:17:49;9.50;99.90
17252;DHT22;8742;51.716;8.790;2024-02-14T05:20:16;9.50;99.90
17252;DHT22;8742;51.716;8.790;2024-02-14T05:22:43;9.50;99.90
17252;DHT22;8742;51.716;8.790;2024-02-14T05:25:10;9.50;99.90
17252;DHT22;8742;51.716;8.790;2024-02-14T05:27:37;9.50;99.90
17252;DHT22;8742;51.716;8.790;2024-02-14T05:30:05;9.50;99.90
17252;DHT22;8742;51.716;8.790;2024-02-14T05:32:36;9.60;99.90
17252;DHT22;8742;51.716;8.790;2024-02-14T05:35:03;9.60;99.90
17252;DHT22;8742;51.716;8.790;2024-02-14T05:37:31;9.60;99.90
17252;DHT22;8742;51.716;8.790;2024-02-14T05:39:58;9.60;99.90
17252;DHT22;8742;51.716;8.790;2024-02-14T05:42:25;9.70;99.90
17252;DHT22;8742;51.716;8.790;2024-02-14T05:44:52;9.70;99.90
17252;DHT22;8742;51.716;8.790;2024-02-14T05:47:19;9.70;99.90
17252;DHT22;8742;51.716;8.790;2024-02-14T05:49:47;9.80;99.90
17252;DHT22;8742;51.716;8.790;2024-02-14T05:52:14;9.80;99.90
17252;DHT22;8742;51.716;8.790;2024-02-14T05:54:41;9.70;99.90
17252;DHT22;8742;51.716;8.790;2024-02-14T05:57:08;9.80;99.90
17252;DHT22;8742;51.716;8.790;2024-02-14T05:59:35;9.80;99.90
17252;DHT22;8742;51.716;8.790;2024-02-14T06:02:02;9.90;99.90
17252;DHT22;8742;51.716;8.790;2024-02-14T06:04:31;9.80;99.90
17252;DHT22;8742;51.716;8.790;2024-02-14T06:06:59;9.90;99.90
17252;DHT22;8742;51.716;8.790;2024-02-14T06:09:26;9.80;99.90
17252;DHT22;8742;51.716;8.790;2024-02-14T06:11:53;9.80;99.90
17252;DHT22;8742;51.716;8.790;2024-02-14T06:14:19;9.70;99.90
17252;DHT22;8742;51.716;8.790;2024-02-14T06:16:46;9.70;99.90
17252;DHT22;8742;51.716;8.790;2024-02-14T06:19:13;9.70;99.90
17252;DHT22;8742;51.716;8.790;2024-02-14T06:21:40;9.70;99.90
17252;DHT22;8742;51.716;8.790;2024-02-14T06:24:08;9.70;99.90
17252;DHT22;8742;51.716;8.790;2024-02-14T06:26:38;9.60;99.90
17252;DHT22;8742;51.716;8.790;2024-02-14T06:29:05;9.60;99.90
17252;DHT22;8742;51.716;8.790;2024-02-14T06:31:32;9.70;99.90
17252;DHT22;8742;51.716;8.790;2024-02-14T06:33:59;9.70;99.90
17252;DHT22;8742;51.716;8.790;2024-02-14T06:36:25;9.60;99.90
17252;DHT22;8742;51.716;8.790;2024-02-14T06:38:52;9.60;99.90
17252;DHT22;8742;51.716;8.790;2024-02-14T06:41:20;9.50;99.90
17252;DHT22;8742;51.716;8.790;2024-02-14T06:43:48;9.50;99.90
17252;DHT22;8742;51.716;8.790;2024-02-14T06:46:15;9.50;99.90
17252;DHT22;8742;51.716;8.790;2024-02-14T06:48:41;9.60;99.90
17252;DHT22;8742;51.716;8.790;2024-02-14T06:51:08;9.60;99.90
17252;DHT22;8742;51.716;8.790;2024-02-14T06:53:35;9.60;99.90
17252;DHT22;8742;51.716;8.790;2024-02-14T06:56:02;9.70;99.90
17252;DHT22;8742;51.716;8.790;2024-02-14T06:58:30;9.70;99.90
17252;DHT22;8742;51.716;8.790;2024-02-14T07:00:57;9.70;99.90
17252;DHT22;8742;51.716;8.790;2024-02-14T07:03:24;9.70;99.90
17252;DHT22;8742;51.716;8.790;2024-02-14T07:05:51;9.80;99.90
17252;DHT22;8742;51.716;8.790;2024-02-14T07:08:18;9.80;99.90
17252;DHT22;8742;51.716;8.790;2024-02-14T07:10:45;9.80;99.90
17252;DHT22;8742;51.716;8.790;2024-02-14T07:13:12;9.90;99.90
17252;DHT22;8742;51.716;8.790;2024-02-14T07:15:40;9.90;99.90
17252;DHT22;8742;51.716;8.790;2024-02-14T07:18:07;10.00;99.90
17252;DHT22;8742;51.716;8.790;2024-02-14T07:20:35;10.00;99.90
17252;DHT22;8742;51.716;8.790;2024-02-14T07:23:02;10.10;99.90
17252;DHT22;8742;51.716;8.790;2024-02-14T07:25:29;10.10;99.90
17252;DHT22;8742;51.716;8.790;2024-02-14T07:27:56;10.10;99.90
17252;DHT22;8742;51.716;8.790;2024-02-14T07:30:23;10.20;99.90
17252;DHT22;8742;51.716;8.790;2024-02-14T07:32:51;10.20;99.90
17252;DHT22;8742;51.716;8.790;2024-02-14T07:35:18;10.20;99.90
17252;DHT22;8742;51.716;8.790;2024-02-14T07:37:46;10.20;99.90
17252;DHT22;8742;51.716;8.790;2024-02-14T07:40:14;10.20;99.90
17252;DHT22;8742;51.716;8.790;2024-02-14T07:42:41;10.30;99.90
17252;DHT22;8742;51.716;8.790;2024-02-14T07:45:08;10.30;99.90
17252;DHT22;8742;51.716;8.790;2024-02-14T07:47:35;10.30;99.90
17252;DHT22;8742;51.716;8.790;2024-02-14T07:50:04;10.30;99.90
17252;DHT22;8742;51.716;8.790;2024-02-14T07:52:31;10.30;99.90
17252;DHT22;8742;51.716;8.790;2024-02-14T07:54:58;10.30;99.90
17252;DHT22;8742;51.716;8.790;2024-02-14T07:57:25;10.40;99.90
17252;DHT22;8742;51.716;8.790;2024-02-14T07:59:53;10.40;99.90
17252;DHT22;8742;51.716;8.790;2024-02-14T08:02:20;10.50;99.90
17252;DHT22;8742;51.716;8.790;2024-02-14T08:04:47;10.50;99.90
17252;DHT22;8742;51.716;8.790;2024-02-14T08:07:15;10.50;99.90
17252;DHT22;8742;51.716;8.790;2024-02-14T08:09:42;10.60;99.90
17252;DHT22;8742;51.716;8.790;2024-02-14T08:12:08;10.60;99.90
17252;DHT22;8742;51.716;8.790;2024-02-14T08:14:36;10.60;99.90
17252;DHT22;8742;51.716;8.790;2024-02-14T08:17:03;10.70;99.90
17252;DHT22;8742;51.716;8.790;2024-02-14T08:19:30;10.70;99.90
17252;DHT22;8742;51.716;8.790;2024-02-14T08:21:57;10.70;99.90
17252;DHT22;8742;51.716;8.790;2024-02-14T08:24:27;10.70;99.90
17252;DHT22;8742;51.716;8.790;2024-02-14T08:26:54;10.80;99.90
17252;DHT22;8742;51.716;8.790;2024-02-14T08:29:21;10.80;99.90
17252;DHT22;8742;51.716;8.790;2024-02-14T08:31:48;10.80;99.90
17252;DHT22;8742;51.716;8.790;2024-02-14T08:34:15;10.80;99.90
17252;DHT22;8742;51.716;8.790;2024-02-14T08:36:42;10.80;99.90
17252;DHT22;8742;51.716;8.790;2024-02-14T08:39:10;10.80;99.90
17252;DHT22;8742;51.716;8.790;2024-02-14T08:41:39;10.80;99.90
17252;DHT22;8742;51.716;8.790;2024-02-14T08:44:08;10.80;99.90
17252;DHT22;8742;51.716;8.790;2024-02-14T08:46:35;10.80;99.90
17252;DHT22;8742;51.716;8.790;2024-02-14T08:49:02;10.90;99.90
17252;DHT22;8742;51.716;8.790;2024-02-14T08:51:33;10.90;99.90
17252;DHT22;8742;51.716;8.790;2024-02-14T08:54:00;10.90;99.90
17252;DHT22;8742;51.716;8.790;2024-02-14T08:56:30;10.90;99.90
17252;DHT22;8742;51.716;8.790;2024-02-14T08:59:00;11.00;99.90
17252;DHT22;8742;51.716;8.790;2024-02-14T09:01:27;11.00;99.90
17252;DHT22;8742;51.716;8.790;2024-02-14T09:03:54;11.00;99.90
17252;DHT22;8742;51.716;8.790;2024-02-14T09:06:21;11.00;99.90
17252;DHT22;8742;51.716;8.790;2024-02-14T09:08:48;11.00;99.90
17252;DHT22;8742;51.716;8.790;2024-02-14T09:11:16;11.10;99.90
17252;DHT22;8742;51.716;8.790;2024-02-14T09:13:43;11.00;99.90
17252;DHT22;8742;51.716;8.790;2024-02-14T09:16:11;11.00;99.90
17252;DHT22;8742;51.716;8.790;2024-02-14T09:18:39;11.00;99.90
17252;DHT22;8742;51.716;8.790;2024-02-14T09:21:06;10.90;99.90
17252;DHT22;8742;51.716;8.790;2024-02-14T09:23:33;10.90;99.90
17252;DHT22;8742;51.716;8.790;2024-02-14T09:26:00;10.90;99.90
17252;DHT22;8742;51.716;8.790;2024-02-14T09:28:27;10.80;99.90
17252;DHT22;8742;51.716;8.790;2024-02-14T09:30:53;10.70;99.90
17252;DHT22;8742;51.716;8.790;2024-02-14T09:33:24;10.70;99.90
17252;DHT22;8742;51.716;8.790;2024-02-14T09:35:51;10.70;99.90
17252;DHT22;8742;51.716;8.790;2024-02-14T09:38:18;10.80;99.90
17252;DHT22;8742;51.716;8.790;2024-02-14T09:40:44;10.80;99.90
17252;DHT22;8742;51.716;8.790;2024-02-14T09:43:20;10.80;99.90
17252;DHT22;8742;51.716;8.790;2024-02-14T09:45:50;10.90;99.90
17252;DHT22;8742;51.716;8.790;2024-02-14T09:48:18;10.90;99.90
17252;DHT22;8742;51.716;8.790;2024-02-14T09:50:48;10.90;99.90
17252;DHT22;8742;51.716;8.790;2024-02-14T09:53:15;10.90;99.90
17252;DHT22;8742;51.716;8.790;2024-02-14T09:55:43;11.00;99.90
17252;DHT22;8742;51.716;8.790;2024-02-14T09:58:12;11.00;99.90
17252;DHT22;8742;51.716;8.790;2024-02-14T10:00:39;11.10;99.90
17252;DHT22;8742;51.716;8.790;2024-02-14T10:03:07;11.20;99.90
17252;DHT22;8742;51.716;8.790;2024-02-14T10:05:34;11.30;99.90
17252;DHT22;8742;51.716;8.790;2024-02-14T10:08:03;11.30;99.90
17252;DHT22;8742;51.716;8.790;2024-02-14T10:10:32;11.30;99.90
17252;DHT22;8742;51.716;8.790;2024-02-14T10:13:00;11.40;99.90
17252;DHT22;8742;51.716;8.790;2024-02-14T10:15:29;11.40;99.90
17252;DHT22;8742;51.716;8.790;2024-02-14T10:17:57;11.40;99.90
17252;DHT22;8742;51.716;8.790;2024-02-14T10:20:25;11.50;99.90
17252;DHT22;8742;51.716;8.790;2024-02-14T10:23:01;11.50;99.90
17252;DHT22;8742;51.716;8.790;2024-02-14T10:25:29;11.50;99.90
17252;DHT22;8742;51.716;8.790;2024-02-14T10:27:56;11.60;99.90
17252;DHT22;8742;51.716;8.790;2024-02-14T10:30:23;11.60;99.90
17252;DHT22;8742;51.716;8.790;2024-02-14T10:32:51;11.70;99.90
17252;DHT22;8742;51.716;8.790;2024-02-14T10:35:19;11.80;99.90
17252;DHT22;8742;51.716;8.790;2024-02-14T10:37:47;11.80;99.90
17252;DHT22;8742;51.716;8.790;2024-02-14T10:40:16;11.90;99.90
17252;DHT22;8742;51.716;8.790;2024-02-14T10:42:44;11.90;99.90
17252;DHT22;8742;51.716;8.790;2024-02-14T10:45:11;11.90;99.90
17252;DHT22;8742;51.716;8.790;2024-02-14T10:47:42;12.00;99.90
17252;DHT22;8742;51.716;8.790;2024-02-14T10:50:12;12.00;99.90
17252;DHT22;8742;51.716;8.790;2024-02-14T10:52:41;12.00;99.90
17252;DHT22;8742;51.716;8.790;2024-02-14T10:55:09;12.00;99.90
17252;DHT22;8742;51.716;8.790;2024-02-14T10:57:39;12.10;99.90
17252;DHT22;8742;51.716;8.790;2024-02-14T11:00:09;12.00;99.90
17252;DHT22;8742;51.716;8.790;2024-02-14T11:02:39;12.10;99.90
17252;DHT22;8742;51.716;8.790;2024-02-14T11:05:11;12.00;99.90
17252;DHT22;8742;51.716;8.790;2024-02-14T11:07:44;12.00;99.90
17252;DHT22;8742;51.716;8.790;2024-02-14T11:10:14;12.00;99.90
17252;DHT22;8742;51.716;8.790;2024-02-14T11:12:43;11.90;99.90
17252;DHT22;8742;51.716;8.790;2024-02-14T11:15:11;12.00;99.90
17252;DHT22;8742;51.716;8.790;2024-02-14T11:17:39;11.90;99.90
17252;DHT22;8742;51.716;8.790;2024-02-14T11:20:17;12.00;99.90
17252;DHT22;8742;51.716;8.790;2024-02-14T11:22:54;11.90;99.90
17252;DHT22;8742;51.716;8.790;2024-02-14T11:25:32;12.00;99.90
17252;DHT22;8742;51.716;8.790;2024-02-14T11:28:01;12.00;99.90
17252;DHT22;8742;51.716;8.790;2024-02-14T11:30:40;12.00;99.90
17252;DHT22;8742;51.716;8.790;2024-02-14T11:33:16;12.00;99.90
17252;DHT22;8742;51.716;8.790;2024-02-14T11:35:44;12.00;99.90
17252;DHT22;8742;51.716;8.790;2024-02-14T11:38:12;12.00;99.90
17252;DHT22;8742;51.716;8.790;2024-02-14T11:40:39;12.10;99.90
17252;DHT22;8742;51.716;8.790;2024-02-14T11:43:11;12.10;99.90
17252;DHT22;8742;51.716;8.790;2024-02-14T11:45:40;12.10;99.90
17252;DHT22;8742;51.716;8.790;2024-02-14T11:48:09;12.20;99.90
17252;DHT22;8742;51.716;8.790;2024-02-14T11:50:36;12.20;99.90
17252;DHT22;8742;51.716;8.790;2024-02-14T11:53:05;12.10;99.90
17252;DHT22;8742;51.716;8.790;2024-02-14T11:55:34;12.10;99.90
17252;DHT22;8742;51.716;8.790;2024-02-14T11:58:03;11.90;99.90
17252;DHT22;8742;51.716;8.790;2024-02-14T12:00:34;11.80;99.90
17252;DHT22;8742;51.716;8.790;2024-02-14T12:03:05;11.70;99.90
17252;DHT22;8742;51.716;8.790;2024-02-14T12:05:33;11.60;99.90
17252;DHT22;8742;51.716;8.790;2024-02-14T12:08:00;11.50;99.90
17252;DHT22;8742;51.716;8.790;2024-02-14T12:10:28;11.40;99.90
17252;DHT22;8742;51.716;8.790;2024-02-14T12:12:57;11.30;99.90
17252;DHT22;8742;51.716;8.790;2024-02-14T12:15:25;11.20;99.90
17252;DHT22;8742;51.716;8.790;2024-02-14T12:17:55;11.10;99.90
17252;DHT22;8742;51.716;8.790;2024-02-14T12:20:22;11.20;99.90
17252;DHT22;8742;51.716;8.790;2024-02-14T12:22:50;11.20;99.90
17252;DHT22;8742;51.716;8.790;2024-02-14T12:25:17;11.20;99.90
17252;DHT22;8742;51.716;8.790;2024-02-14T12:27:50;11.10;99.90
17252;DHT22;8742;51.716;8.790;2024-02-14T12:30:20;11.10;99.90
17252;DHT22;8742;51.716;8.790;2024-02-14T12:32:59;11.10;99.90
17252;DHT22;8742;51.716;8.790;2024-02-14T12:35:26;11.00;99.90
17252;DHT22;8742;51.716;8.790;2024-02-14T12:37:53;11.00;99.90
17252;DHT22;8742;51.716;8.790;2024-02-14T12:40:20;11.00;99.90
17252;DHT22;8742;51.716;8.790;2024-02-14T12:42:47;11.00;99.90
17252;DHT22;8742;51.716;8.790;2024-02-14T12:45:14;11.00;99.90
17252;DHT22;8742;51.716;8.790;2024-02-14T12:47:41;10.90;99.90
17252;DHT22;8742;51.716;8.790;2024-02-14T12:50:10;10.90;99.90
17252;DHT22;8742;51.716;8.790;2024-02-14T12:52:37;10.90;99.90
17252;DHT22;8742;51.716;8.790;2024-02-14T12:55:04;10.90;99.90
17252;DHT22;8742;51.716;8.790;2024-02-14T12:57:31;10.90;99.90
17252;DHT22;8742;51.716;8.790;2024-02-14T12:59:58;11.00;99.90
17252;DHT22;8742;51.716;8.790;2024-02-14T13:02:25;11.00;99.90
17252;DHT22;8742;51.716;8.790;2024-02-14T13:04:54;11.00;99.90
17252;DHT22;8742;51.716;8.790;2024-02-14T13:07:22;11.00;99.90
17252;DHT22;8742;51.716;8.790;2024-02-14T13:09:49;11.00;99.90
17252;DHT22;8742;51.716;8.790;2024-02-14T13:12:16;11.10;99.90
17252;DHT22;8742;51.716;8.790;2024-02-14T13:14:43;11.10;99.90
17252;DHT22;8742;51.716;8.790;2024-02-14T13:17:10;11.00;99.90
17252;DHT22;8742;51.716;8.790;2024-02-14T13:19:37;11.10;99.90
17252;DHT22;8742;51.716;8.790;2024-02-14T13:22:05;11.10;99.90
17252;DHT22;8742;51.716;8.790;2024-02-14T13:24:33;11.10;99.90
17252;DHT22;8742;51.716;8.790;2024-02-14T13:27:00;11.10;99.90
17252;DHT22;8742;51.716;8.790;2024-02-14T13:29:28;11.20;99.90
17252;DHT22;8742;51.716;8.790;2024-02-14T13:31:55;11.30;99.90
17252;DHT22;8742;51.716;8.790;2024-02-14T13:34:21;11.30;99.90
17252;DHT22;8742;51.716;8.790;2024-02-14T13:36:49;11.30;99.90
17252;DHT22;8742;51.716;8.790;2024-02-14T13:39:16;11.40;99.90
17252;DHT22;8742;51.716;8.790;2024-02-14T13:41:44;11.40;99.90
17252;DHT22;8742;51.716;8.790;2024-02-14T13:44:11;11.50;99.90
17252;DHT22;8742;51.716;8.790;2024-02-14T13:46:44;11.50;99.90
17252;DHT22;8742;51.716;8.790;2024-02-14T13:49:11;11.50;99.90
17252;DHT22;8742;51.716;8.790;2024-02-14T13:51:43;11.60;99.90
17252;DHT22;8742;51.716;8.790;2024-02-14T13:54:12;11.60;99.90
17252;DHT22;8742;51.716;8.790;2024-02-14T13:56:38;11.60;99.90
17252;DHT22;8742;51.716;8.790;2024-02-14T13:59:07;11.60;99.90
17252;DHT22;8742;51.716;8.790;2024-02-14T14:01:34;11.60;99.90
17252;DHT22;8742;51.716;8.790;2024-02-14T14:04:01;11.60;99.90
17252;DHT22;8742;51.716;8.790;2024-02-14T14:06:29;11.70;99.90
17252;DHT22;8742;51.716;8.790;2024-02-14T14:08:56;11.70;99.90
17252;DHT22;8742;51.716;8.790;2024-02-14T14:11:22;11.70;99.90
17252;DHT22;8742;51.716;8.790;2024-02-14T14:13:49;11.70;99.90
17252;DHT22;8742;51.716;8.790;2024-02-14T14:16:21;11.70;99.90
17252;DHT22;8742;51.716;8.790;2024-02-14T14:18:50;11.70;99.90
17252;DHT22;8742;51.716;8.790;2024-02-14T14:21:17;11.70;99.90
17252;DHT22;8742;51.716;8.790;2024-02-14T14:23:44;11.70;99.90
17252;DHT22;8742;51.716;8.790;2024-02-14T14:26:12;11.70;99.90
17252;DHT22;8742;51.716;8.790;2024-02-14T14:28:41;11.70;99.90
17252;DHT22;8742;51.716;8.790;2024-02-14T14:31:08;11.80;99.90
17252;DHT22;8742;51.716;8.790;2024-02-14T14:33:38;11.80;99.90
17252;DHT22;8742;51.716;8.790;2024-02-14T14:36:05;11.80;99.90
17252;DHT22;8742;51.716;8.790;2024-02-14T14:38:34;11.90;99.90
17252;DHT22;8742;51.716;8.790;2024-02-14T14:41:01;11.90;99.90
17252;DHT22;8742;51.716;8.790;2024-02-14T14:43:28;11.90;99.90
17252;DHT22;8742;51.716;8.790;2024-02-14T14:45:57;11.90;99.90
17252;DHT22;8742;51.716;8.790;2024-02-14T14:48:25;12.00;99.90
17252;DHT22;8742;51.716;8.790;2024-02-14T14:50:55;12.10;99.90
17252;DHT22;8742;51.716;8.790;2024-02-14T14:53:22;12.10;99.90
17252;DHT22;8742;51.716;8.790;2024-02-14T14:55:51;12.20;99.90
17252;DHT22;8742;51.716;8.790;2024-02-14T14:58:18;12.20;99.90
17252;DHT22;8742;51.716;8.790;2024-02-14T15:00:46;12.20;99.90
17252;DHT22;8742;51.716;8.790;2024-02-14T15:03:13;12.30;99.90
17252;DHT22;8742;51.716;8.790;2024-02-14T15:05:40;12.30;99.90
17252;DHT22;8742;51.716;8.790;2024-02-14T15:08:08;12.30;99.90
17252;DHT22;8742;51.716;8.790;2024-02-14T15:10:35;12.30;99.90
17252;DHT22;8742;51.716;8.790;2024-02-14T15:13:04;12.30;99.90
17252;DHT22;8742;51.716;8.790;2024-02-14T15:15:31;12.30;99.90
17252;DHT22;8742;51.716;8.790;2024-02-14T15:17:58;12.20;99.90
17252;DHT22;8742;51.716;8.790;2024-02-14T15:20:25;12.20;99.90
17252;DHT22;8742;51.716;8.790;2024-02-14T15:22:52;12.10;99.90
17252;DHT22;8742;51.716;8.790;2024-02-14T15:25:20;12.00;99.90
17252;DHT22;8742;51.716;8.790;2024-02-14T15:27:47;12.00;99.90
17252;DHT22;8742;51.716;8.790;2024-02-14T15:30:20;12.00;99.90
17252;DHT22;8742;51.716;8.790;2024-02-14T15:33:04;12.00;99.90
17252;DHT22;8742;51.716;8.790;2024-02-14T15:35:49;12.00;99.90
17252;DHT22;8742;51.716;8.790;2024-02-14T15:38:17;12.10;99.90
17252;DHT22;8742;51.716;8.790;2024-02-14T15:40:46;12.00;99.90
17252;DHT22;8742;51.716;8.790;2024-02-14T15:43:16;12.00;99.90
17252;DHT22;8742;51.716;8.790;2024-02-14T15:45:42;12.00;99.90
17252;DHT22;8742;51.716;8.790;2024-02-14T15:48:09;11.90;99.90
17252;DHT22;8742;51.716;8.790;2024-02-14T15:50:38;11.90;99.90
17252;DHT22;8742;51.716;8.790;2024-02-14T15:53:05;11.80;99.90
17252;DHT22;8742;51.716;8.790;2024-02-14T15:55:32;11.70;99.90